FRIANT DAM (MILLERTON) (MIL)

Elevation: 581' · SAN JOAQUIN R basin · Operator: US Bureau of Reclamation


Station comments:

11/19/2014Hourly storage has resumed as of 11/19/2014. It had previously stopped at 2/26/1998.


Provisional data, subject to change.
Query executed Wednesday at 5:44:15   clock

Select a sensor type for a plot of data.
Note: Reservoir Flows are daily averages.

Earlier

Date RES ELE    STORAGE    RES CHG    TOC STO    ABV TOC    OUTFLOW    INFLOW    EVAP    FNF    RIV REL    PPT INC    SPILL   
 FEET   AF   AF   AF   AF   CFS   CFS   CFS   CFS   CFS   INCHES   CFS  
03/03/2015 493.66 197495 445 439822 -242327 155 387 8 394 155 0.00 0
03/04/2015 493.91 198191 696 442703 -244512 155 522 16 380 155 0.00 0
03/05/2015 494.04 198553 362 445585 -247032 155 346 8 399 155 0.00 0
03/06/2015 494.24 199114 561 448466 -249352 155 450 12 391 155 0.00 0
03/07/2015 494.41 199591 477 451347 -251756 165 420 15 390 165 0.00 0
03/08/2015 494.48 199788 197 454229 -254441 180 292 13 378 180 0.00 0
03/09/2015 494.57 200040 252 457110 -257070 181 321 13 482 181 0.00 0
03/10/2015 494.65 200265 225 459992 -259726 181 312 18 365 181 0.00 0
03/11/2015 494.80 200686 421 462873 -262187 181 399 6 430 181 0.01 0
03/12/2015 494.94 201079 393 465754 -264675 181 397 18 474 181 0.00 0
03/13/2015 495.03 201332 253 468636 -267304 181 316 7 405 181 0.00 0
03/14/2015 495.11 201558 226 471517 -269959 181 319 24 524 181 0.00 0
03/15/2015 495.23 201898 340 474398 -272500 181 371 19 632 181 0.00 0
03/16/2015 495.29 202068 170 477280 -275212 181 274 7 765 181 0.00 0
03/17/2015 495.39 202351 283 480161 -277810 180 334 11 635 180 0.00 0
03/18/2015 495.53 202747 396 483042 -280295 180 394 14 663 180 0.00 0
03/19/2015 495.67 203143 396 485924 -282781 180 398 18 533 180 0.00 0
03/20/2015 495.69 203200 57 488805 -285605 181 225 15 506 181 0.00 0
03/21/2015 495.71 203256 56 491686 -288430 181 228 19 564 181 0.00 0
03/22/2015 495.87 203709 453 494568 -- 181 426 17 525 181 0.00 0
03/23/2015 496.04 204191 482 497449 -293258 189 450 18 712 189 0.00 0
03/24/2015 496.10 204363 172 500330 -295968 306 405 12 554 195 0.00 0
03/25/2015 496.04 204191 -172 503212 -299021 278 208 17 514 195 0.00 0
03/26/2015 496.03 204163 -28 506093 -301930 195 198 17 544 195 0.00 0
03/27/2015 496.00 204077 -86 508975 -304898 195 172 20 707 195 0.00 0
03/28/2015 496.05 204220 143 -- -- 195 288 21 790 195 0.00 0
03/29/2015 496.15 204505 285 -- -- 195 362 23 789 195 0.00 0
03/30/2015 496.24 204762 257 -- -- 195 346 21 870 195 0.00 0
03/31/2015 496.14 204476 -286 -- -- -- -- -- -- -- -- --
04/01/2015 -- -- -- -- -- -- -- -- -- -- -- --

Later | Latest

Warning! This data is preliminary and subject to revision.

Show MIL Map | Plot MIL Data | 1 Month MIL Data | Real-Time MIL Data | MIL Info